createdAt,value
2023-04-01T00:00:10.946Z,85.57
2023-04-01T00:01:15.755Z,85.73
2023-04-01T00:02:17.324Z,85.56
2023-04-01T00:03:21.883Z,85.40
2023-04-01T00:04:24.732Z,85.92
2023-04-01T00:05:26.415Z,85.53
2023-04-01T00:06:29.767Z,85.48
2023-04-01T00:07:31.879Z,85.97
2023-04-01T00:08:34.886Z,85.71
2023-04-01T00:09:36.633Z,86.34
2023-04-01T00:10:39.112Z,85.76
2023-04-01T00:11:41.380Z,85.45
2023-04-01T00:12:44.099Z,85.08
2023-04-01T00:13:45.825Z,86.74
2023-04-01T00:14:48.272Z,86.96
2023-04-01T00:15:50.016Z,87.20
2023-04-01T00:16:53.393Z,86.84
2023-04-01T00:17:55.622Z,87.23
2023-04-01T00:19:00.992Z,87.00
2023-04-01T00:20:03.926Z,87.08
2023-04-01T00:21:06.956Z,87.14
2023-04-01T00:22:12.386Z,88.08
2023-04-01T00:23:14.936Z,89.60
2023-04-01T00:24:16.443Z,89.21
2023-04-01T00:25:19.493Z,89.00
2023-04-01T00:26:22.824Z,89.36
2023-04-01T00:27:25.776Z,89.62
2023-04-01T00:28:27.780Z,89.01
2023-04-01T00:29:31.527Z,90.03
2023-04-01T00:30:33.191Z,89.34
2023-04-01T00:31:35.806Z,91.04
2023-04-01T00:32:37.812Z,91.10
2023-04-01T00:33:40.864Z,90.06
2023-04-01T00:34:45.270Z,89.58
2023-04-01T00:35:48.502Z,88.53
2023-04-01T00:36:50.097Z,88.21
2023-04-01T00:37:52.729Z,87.91
2023-04-01T00:38:54.237Z,88.27
2023-04-01T00:39:57.238Z,89.59
2023-04-01T00:40:59.283Z,90.38
2023-04-01T00:42:03.315Z,90.37
2023-04-01T00:43:11.847Z,90.11
2023-04-01T00:44:20.076Z,90.58
2023-04-01T00:45:30.783Z,91.72
2023-04-01T00:46:33.554Z,91.52
2023-04-01T00:47:35.155Z,91.17
2023-04-01T00:48:40.084Z,90.53
2023-04-01T00:49:46.456Z,90.13
2023-04-01T00:50:54.019Z,90.58
2023-04-01T00:51:58.322Z,91.11
2023-04-01T00:53:04.768Z,91.35
2023-04-01T00:54:08.648Z,91.09
2023-04-01T00:55:13.464Z,90.67
2023-04-01T00:56:19.127Z,91.21
2023-04-01T00:57:26.531Z,90.71
2023-04-01T00:58:33.069Z,90.39
2023-04-01T00:59:36.769Z,89.60
2023-04-01T01:00:40.390Z,89.80
2023-04-01T01:01:42.166Z,89.41
2023-04-01T01:02:47.310Z,88.93
2023-04-01T01:03:48.915Z,90.01
2023-04-01T01:04:52.687Z,91.07
2023-04-01T01:06:09.169Z,90.04
2023-04-01T01:07:22.295Z,89.59
2023-04-01T01:08:37.168Z,88.86
2023-04-01T01:09:47.836Z,88.46
2023-04-01T01:10:51.072Z,88.84
2023-04-01T01:11:59.590Z,88.62
2023-04-01T01:13:07.021Z,87.56
2023-04-01T01:14:19.723Z,88.17
2023-04-01T01:15:25.744Z,88.58
2023-04-01T01:16:32.071Z,88.05
2023-04-01T01:17:45.396Z,87.48
2023-04-01T01:18:55.979Z,87.10
2023-04-01T01:20:33.980Z,86.46
2023-04-01T01:21:49.612Z,85.52
2023-04-01T01:23:02.427Z,85.94
2023-04-01T01:24:49.244Z,86.60
2023-04-01T01:26:00.040Z,87.90
2023-04-01T01:27:04.185Z,87.18
2023-04-01T01:28:28.052Z,87.09
2023-04-01T01:29:54.105Z,86.47
2023-04-01T01:31:04.094Z,86.87
2023-04-01T01:32:13.265Z,88.90
2023-04-01T01:33:41.522Z,90.09
2023-04-01T01:34:53.489Z,89.65
2023-04-01T01:36:02.128Z,89.11
2023-04-01T01:37:09.808Z,88.80
2023-04-01T01:38:16.436Z,89.93
2023-04-01T01:39:19.452Z,90.29
2023-04-01T01:40:22.498Z,90.78
2023-04-01T01:41:27.629Z,90.46
2023-04-01T01:42:33.470Z,90.07
2023-04-01T01:43:39.846Z,90.48
2023-04-01T01:44:46.196Z,90.71
2023-04-01T01:45:51.954Z,91.00
2023-04-01T01:46:54.528Z,90.63
2023-04-01T01:47:58.964Z,89.71
2023-04-01T01:49:02.383Z,88.99
2023-04-01T01:50:06.398Z,88.33
2023-04-01T01:51:10.656Z,88.45
2023-04-01T01:52:13.953Z,88.28
2023-04-01T01:53:16.781Z,87.79
2023-04-01T01:54:19.099Z,87.83
2023-04-01T01:55:28.234Z,88.46
2023-04-01T01:56:31.922Z,88.24
2023-04-01T01:57:37.774Z,87.88
2023-04-01T01:58:44.605Z,87.46
2023-04-01T01:59:48.461Z,87.53
2023-04-01T02:00:54.975Z,87.40
2023-04-01T02:01:58.132Z,86.72
2023-04-01T02:03:01.227Z,86.68
2023-04-01T02:04:04.008Z,86.03
2023-04-01T02:05:07.798Z,85.96
2023-04-01T02:06:12.911Z,85.31
2023-04-01T02:07:21.604Z,85.01
2023-04-01T02:08:27.601Z,84.70
2023-04-01T02:09:30.393Z,85.58
2023-04-01T02:10:37.479Z,85.79
2023-04-01T02:11:45.102Z,85.40
2023-04-01T02:12:48.895Z,85.08
2023-04-01T02:13:57.137Z,84.48
2023-04-01T02:15:03.885Z,84.47
2023-04-01T02:16:11.289Z,84.01
2023-04-01T02:17:17.496Z,84.59
2023-04-01T02:18:21.443Z,84.84
2023-04-01T02:19:27.602Z,85.50
2023-04-01T02:20:31.763Z,85.18
2023-04-01T02:21:36.565Z,85.10
2023-04-01T02:22:43.499Z,85.21
2023-04-01T02:23:47.754Z,85.19
2023-04-01T02:24:52.406Z,85.80
2023-04-01T02:25:54.380Z,86.05
2023-04-01T02:26:56.841Z,86.66
2023-04-01T02:28:01.006Z,86.45
2023-04-01T02:29:05.925Z,87.00
2023-04-01T02:30:08.870Z,86.82
2023-04-01T02:31:12.557Z,86.39
2023-04-01T02:32:15.525Z,87.22
2023-04-01T02:33:19.160Z,87.33
2023-04-01T02:34:21.365Z,87.13
2023-04-01T02:35:24.247Z,86.30
2023-04-01T02:36:26.110Z,86.31
2023-04-01T02:37:29.934Z,86.29
2023-04-01T02:38:31.571Z,87.43
2023-04-01T02:39:34.309Z,89.10
2023-04-01T02:40:47.084Z,88.21
2023-04-01T02:41:49.527Z,87.98
2023-04-01T02:42:51.718Z,87.06
2023-04-01T02:43:54.208Z,87.77
2023-04-01T02:44:55.741Z,87.74
2023-04-01T02:45:58.473Z,87.00
2023-04-01T02:47:00.092Z,87.35
2023-04-01T02:48:02.764Z,87.09
2023-04-01T02:49:05.689Z,86.60
2023-04-01T02:50:08.876Z,87.01
2023-04-01T02:51:11.423Z,86.92
2023-04-01T02:52:12.937Z,86.86
2023-04-01T02:53:17.277Z,86.17
2023-04-01T02:54:18.788Z,85.71
2023-04-01T02:55:21.303Z,85.79
2023-04-01T02:56:22.864Z,85.83
2023-04-01T02:57:25.913Z,86.84
2023-04-01T02:58:27.477Z,86.73
2023-04-01T02:59:29.913Z,86.49
2023-04-01T03:00:31.881Z,85.77
2023-04-01T03:01:34.537Z,86.02
2023-04-01T03:02:37.373Z,87.25
2023-04-01T03:03:40.340Z,87.04
2023-04-01T03:04:42.022Z,86.62
2023-04-01T03:05:44.546Z,85.73
2023-04-01T03:06:46.046Z,86.25
2023-04-01T03:07:49.014Z,86.19
2023-04-01T03:08:51.927Z,86.05
2023-04-01T03:09:57.748Z,85.95
2023-04-01T03:11:00.628Z,85.58
2023-04-01T03:12:03.225Z,84.74
2023-04-01T03:13:04.785Z,84.38
2023-04-01T03:14:07.949Z,84.74
2023-04-01T03:15:11.694Z,85.19
2023-04-01T03:16:14.704Z,86.62
2023-04-01T03:17:16.528Z,85.90
2023-04-01T03:18:19.265Z,85.66
2023-04-01T03:19:20.834Z,86.37
2023-04-01T03:20:23.395Z,86.50
2023-04-01T03:21:25.519Z,88.08
2023-04-01T03:22:27.976Z,88.50
2023-04-01T03:23:29.456Z,88.32
2023-04-01T03:24:33.268Z,87.83
2023-04-01T03:25:35.038Z,87.35
2023-04-01T03:26:37.861Z,87.00
2023-04-01T03:27:39.740Z,86.75
2023-04-01T03:28:42.291Z,86.48
2023-04-01T03:29:43.866Z,85.99
2023-04-01T03:30:46.470Z,87.26
2023-04-01T03:31:48.017Z,88.00
2023-04-01T03:32:50.525Z,87.72
2023-04-01T03:33:52.275Z,86.87
2023-04-01T03:34:54.768Z,86.47
2023-04-01T03:35:56.420Z,86.14
2023-04-01T03:36:59.783Z,85.59
2023-04-01T03:38:01.323Z,85.09
2023-04-01T03:39:04.859Z,85.93
2023-04-01T03:40:08.985Z,86.54
2023-04-01T03:41:14.562Z,88.12
2023-04-01T03:42:16.162Z,87.74
2023-04-01T03:43:18.810Z,87.40
2023-04-01T03:44:20.368Z,87.10
2023-04-01T03:45:23.096Z,86.65
2023-04-01T03:46:24.673Z,85.43
2023-04-01T03:47:27.223Z,85.23
2023-04-01T03:48:29.008Z,84.79
2023-04-01T03:49:33.073Z,86.48
2023-04-01T03:50:35.729Z,86.77
2023-04-01T03:51:38.221Z,86.26
2023-04-01T03:52:39.922Z,85.73
2023-04-01T03:53:42.432Z,85.27
2023-04-01T03:54:43.942Z,84.91
2023-04-01T03:55:47.765Z,84.43
2023-04-01T03:56:49.422Z,84.11
2023-04-01T03:57:51.939Z,84.50
2023-04-01T03:58:53.474Z,84.11
2023-04-01T03:59:55.955Z,84.10
2023-04-01T04:00:57.488Z,84.34
2023-04-01T04:02:00.211Z,84.42
2023-04-01T04:03:01.905Z,86.43
2023-04-01T04:04:04.562Z,86.69
2023-04-01T04:05:07.974Z,86.10
2023-04-01T04:06:13.118Z,85.58
2023-04-01T04:07:14.680Z,85.11
2023-04-01T04:08:17.440Z,84.88
2023-04-01T04:09:19.036Z,85.17
2023-04-01T04:10:23.314Z,85.44
2023-04-01T04:11:26.793Z,85.34
2023-04-01T04:12:29.284Z,85.76
2023-04-01T04:13:30.790Z,85.70
2023-04-01T04:14:33.451Z,85.95
2023-04-01T04:15:35.057Z,84.94
2023-04-01T04:16:38.411Z,85.87
2023-04-01T04:17:40.087Z,86.00
2023-04-01T04:18:42.820Z,85.33
2023-04-01T04:19:45.455Z,85.82
2023-04-01T04:20:49.342Z,86.15
2023-04-01T04:21:51.885Z,87.91
2023-04-01T04:22:53.442Z,88.57
2023-04-01T04:23:56.145Z,88.05
2023-04-01T04:24:57.710Z,89.25
2023-04-01T04:26:02.554Z,89.25
2023-04-01T04:27:06.941Z,90.45
2023-04-01T04:28:08.476Z,89.94
2023-04-01T04:29:10.916Z,88.86
2023-04-01T04:30:13.042Z,88.21
2023-04-01T04:31:20.792Z,88.57
2023-04-01T04:32:22.448Z,88.41
2023-04-01T04:33:26.117Z,87.71
2023-04-01T04:34:28.194Z,86.90
2023-04-01T04:35:31.180Z,87.18
2023-04-01T04:36:32.853Z,86.86
2023-04-01T04:37:35.391Z,86.86
2023-04-01T04:38:37.005Z,86.31
2023-04-01T04:39:39.518Z,86.68
2023-04-01T04:40:42.259Z,86.62
2023-04-01T04:41:44.805Z,86.45
2023-04-01T04:42:47.784Z,86.60
2023-04-01T04:43:52.772Z,86.36
2023-04-01T04:44:54.398Z,86.45
2023-04-01T04:45:57.015Z,86.66
2023-04-01T04:46:58.712Z,87.02
2023-04-01T04:48:01.354Z,86.85
2023-04-01T04:49:03.920Z,86.56
2023-04-01T04:50:06.902Z,86.49
2023-04-01T04:51:09.436Z,86.54
2023-04-01T04:52:11.020Z,86.21
2023-04-01T04:53:13.775Z,86.89
2023-04-01T04:54:15.424Z,87.31
2023-04-01T04:55:18.092Z,86.83
2023-04-01T04:56:20.476Z,87.05
2023-04-01T04:57:32.191Z,87.94
2023-04-01T04:58:35.313Z,87.76
2023-04-01T04:59:38.326Z,87.23
2023-04-01T05:00:39.847Z,86.64
2023-04-01T05:01:42.458Z,86.24
2023-04-01T05:02:44.669Z,85.33
2023-04-01T05:03:47.724Z,85.21
2023-04-01T05:04:49.309Z,85.22
2023-04-01T05:05:52.552Z,85.12
2023-04-01T05:06:54.205Z,85.18
2023-04-01T05:07:56.750Z,85.01
2023-04-01T05:08:58.819Z,84.63
2023-04-01T05:10:01.272Z,84.61
2023-04-01T05:11:03.650Z,84.43
2023-04-01T05:12:06.428Z,83.46
2023-04-01T05:13:08.313Z,83.47
2023-04-01T05:14:16.010Z,83.65
2023-04-01T05:15:18.026Z,83.22
2023-04-01T05:16:22.214Z,83.18
2023-04-01T05:17:23.818Z,83.20
2023-04-01T05:18:26.362Z,83.45
2023-04-01T05:19:27.952Z,83.59
2023-04-01T05:20:30.674Z,83.72
2023-04-01T05:21:32.621Z,83.06
2023-04-01T05:22:35.583Z,82.84
2023-04-01T05:23:37.362Z,82.02
2023-04-01T05:24:39.856Z,83.15
2023-04-01T05:25:41.450Z,81.78
2023-04-01T05:26:44.024Z,81.41
2023-04-01T05:27:45.779Z,81.37
2023-04-01T05:28:48.442Z,81.45
2023-04-01T05:29:51.487Z,81.89
2023-04-01T05:30:54.000Z,82.42
2023-04-01T05:31:55.720Z,82.19
2023-04-01T05:32:58.282Z,82.00
2023-04-01T05:33:59.836Z,81.20
2023-04-01T05:35:02.463Z,82.57
2023-04-01T05:36:08.885Z,82.47
2023-04-01T05:37:11.496Z,82.75
2023-04-01T05:38:13.115Z,83.21
2023-04-01T05:39:15.997Z,83.68
2023-04-01T05:40:17.940Z,84.27
2023-04-01T05:41:20.532Z,84.71
2023-04-01T05:42:22.233Z,84.50
2023-04-01T05:43:24.946Z,84.99
2023-04-01T05:44:26.584Z,84.95
2023-04-01T05:45:30.520Z,84.81
2023-04-01T05:46:32.294Z,83.95
2023-04-01T05:47:34.878Z,83.61
2023-04-01T05:48:38.079Z,82.89
2023-04-01T05:49:39.606Z,82.84
2023-04-01T05:50:43.407Z,83.15
2023-04-01T05:51:44.973Z,82.49
2023-04-01T05:52:47.952Z,82.88
2023-04-01T05:53:51.796Z,83.03
2023-04-01T05:54:54.368Z,83.20
2023-04-01T05:55:56.123Z,83.27
2023-04-01T05:56:58.677Z,82.79
2023-04-01T05:58:00.225Z,82.43
2023-04-01T05:59:02.725Z,82.05
2023-04-01T06:00:05.532Z,82.43
2023-04-01T06:01:15.790Z,82.76
2023-04-01T06:02:18.607Z,82.55
2023-04-01T06:03:21.281Z,83.13
2023-04-01T06:04:23.030Z,83.34
2023-04-01T06:05:29.235Z,83.38
2023-04-01T06:06:32.798Z,84.09
2023-04-01T06:07:35.339Z,84.57
2023-04-01T06:08:36.859Z,84.63
2023-04-01T06:09:39.417Z,84.00
2023-04-01T06:10:54.091Z,84.47
2023-04-01T06:12:21.846Z,84.18
2023-04-01T06:13:38.603Z,83.81
2023-04-01T06:14:52.891Z,83.72
2023-04-01T06:16:06.646Z,83.96
2023-04-01T06:17:25.992Z,83.78
2023-04-01T06:18:52.947Z,84.39
2023-04-01T06:20:03.601Z,83.59
2023-04-01T06:21:16.616Z,82.79
2023-04-01T06:22:34.018Z,83.00
2023-04-01T06:23:54.661Z,83.95
2023-04-01T06:25:14.611Z,83.95
2023-04-01T06:26:26.041Z,84.35
2023-04-01T06:27:42.397Z,85.12
2023-04-01T06:28:59.772Z,84.62
2023-04-01T06:30:25.196Z,84.40
2023-04-01T06:31:47.611Z,83.79
2023-04-01T06:33:04.217Z,83.59
2023-04-01T06:34:21.732Z,82.09
2023-04-01T06:35:47.829Z,83.57
2023-04-01T06:37:06.076Z,83.10
2023-04-01T06:38:31.274Z,82.71
2023-04-01T06:39:52.160Z,82.13
2023-04-01T06:41:18.244Z,81.45
2023-04-01T06:42:34.678Z,80.75
2023-04-01T06:43:49.416Z,79.62
2023-04-01T06:45:01.721Z,81.13
2023-04-01T06:46:11.924Z,81.67
2023-04-01T06:47:31.150Z,80.56
2023-04-01T06:48:46.367Z,80.78
2023-04-01T06:49:57.875Z,82.55
2023-04-01T06:51:05.733Z,81.74
2023-04-01T06:52:19.238Z,82.14
2023-04-01T06:53:29.645Z,81.52
2023-04-01T06:54:35.504Z,80.73
2023-04-01T06:55:42.280Z,80.51
2023-04-01T06:56:47.646Z,81.22
2023-04-01T06:57:52.069Z,81.27
2023-04-01T06:58:59.065Z,82.13
2023-04-01T07:00:04.331Z,82.85
2023-04-01T07:01:11.435Z,83.78
2023-04-01T07:02:24.919Z,83.76
2023-04-01T07:03:34.197Z,83.04
2023-04-01T07:04:42.322Z,83.21
2023-04-01T07:05:44.947Z,82.95
2023-04-01T07:06:52.324Z,83.78
2023-04-01T07:07:58.018Z,83.06
2023-04-01T07:09:06.055Z,82.35
2023-04-01T07:10:16.205Z,81.94
2023-04-01T07:11:27.532Z,81.79
2023-04-01T07:12:38.879Z,81.11
2023-04-01T07:13:47.179Z,80.63
2023-04-01T07:14:51.291Z,79.88
2023-04-01T07:16:05.332Z,80.11
2023-04-01T07:17:16.766Z,80.99
2023-04-01T07:18:23.038Z,82.17
2023-04-01T07:19:32.541Z,84.25
2023-04-01T07:20:39.011Z,83.75
2023-04-01T07:21:47.398Z,83.64
2023-04-01T07:22:52.575Z,83.26
2023-04-01T07:23:58.783Z,83.35
2023-04-01T07:25:06.901Z,81.92
2023-04-01T07:26:18.931Z,82.02
2023-04-01T07:27:20.853Z,81.64
2023-04-01T07:28:23.713Z,82.38
2023-04-01T07:29:27.461Z,82.91
2023-04-01T07:30:38.275Z,82.66
2023-04-01T07:31:52.001Z,81.56
2023-04-01T07:32:58.052Z,82.08
2023-04-01T07:34:07.233Z,83.25
2023-04-01T07:35:21.415Z,83.43
2023-04-01T07:36:29.872Z,82.40
2023-04-01T07:37:37.769Z,82.74
2023-04-01T07:38:53.270Z,81.83
2023-04-01T07:40:05.145Z,81.37
2023-04-01T07:41:19.262Z,80.37
2023-04-01T07:42:33.056Z,80.28
2023-04-01T07:43:52.220Z,80.84
2023-04-01T07:45:03.542Z,82.08
2023-04-01T07:46:19.427Z,82.97
2023-04-01T07:47:37.220Z,80.82
2023-04-01T07:48:45.494Z,80.90
2023-04-01T07:49:59.653Z,80.55
2023-04-01T07:51:06.170Z,80.90
2023-04-01T07:52:15.895Z,81.17
2023-04-01T07:53:26.433Z,80.71
2023-04-01T07:54:36.410Z,79.71
2023-04-01T07:55:45.402Z,78.88
2023-04-01T07:56:53.121Z,79.58
2023-04-01T07:58:09.861Z,79.51
2023-04-01T07:59:21.139Z,80.58
2023-04-01T08:00:29.601Z,81.65
2023-04-01T08:01:37.846Z,82.77
2023-04-01T08:02:54.975Z,82.63
2023-04-01T08:04:14.586Z,82.72
2023-04-01T08:05:24.359Z,81.91
2023-04-01T08:06:30.808Z,80.54
2023-04-01T08:07:42.547Z,81.22
2023-04-01T08:08:58.368Z,80.75
2023-04-01T08:10:06.074Z,82.39
2023-04-01T08:11:23.010Z,83.03
2023-04-01T08:12:39.761Z,82.99
2023-04-01T08:13:47.672Z,82.73
2023-04-01T08:14:58.003Z,82.28
2023-04-01T08:16:09.724Z,83.22
2023-04-01T08:17:20.833Z,85.76
2023-04-01T08:18:34.561Z,86.81
2023-04-01T08:19:52.899Z,86.11
2023-04-01T08:20:59.874Z,84.96
2023-04-01T08:22:08.526Z,83.83
2023-04-01T08:23:18.254Z,82.88
2023-04-01T08:24:37.077Z,81.34
2023-04-01T08:25:52.541Z,81.12
2023-04-01T08:26:59.351Z,81.29
2023-04-01T08:28:08.001Z,79.92
2023-04-01T08:29:16.061Z,82.84
2023-04-01T08:30:20.999Z,82.35
2023-04-01T08:31:32.451Z,80.22
2023-04-01T08:32:38.155Z,78.58
2023-04-01T08:33:46.459Z,78.64
2023-04-01T08:35:03.122Z,77.24
2023-04-01T08:36:09.204Z,78.44
2023-04-01T08:37:15.401Z,77.75
2023-04-01T08:38:38.511Z,76.83
2023-04-01T08:39:47.176Z,76.69
2023-04-01T08:40:59.831Z,76.03
2023-04-01T08:42:19.929Z,74.27
2023-04-01T08:43:41.301Z,74.36
2023-04-01T08:45:14.421Z,75.60
2023-04-01T08:46:29.447Z,77.31
2023-04-01T08:47:45.990Z,76.20
2023-04-01T08:49:09.768Z,75.68
2023-04-01T08:50:34.323Z,76.32
2023-04-01T08:52:12.626Z,77.31
2023-04-01T08:53:21.750Z,77.41
2023-04-01T08:54:56.888Z,75.99
2023-04-01T08:56:11.327Z,76.91
2023-04-01T08:57:22.946Z,76.46
2023-04-01T08:59:01.334Z,75.58
2023-04-01T09:00:16.508Z,75.60
2023-04-01T09:01:28.218Z,74.79
2023-04-01T09:02:53.281Z,73.24
2023-04-01T09:04:16.695Z,73.81
2023-04-01T09:05:58.725Z,74.76
2023-04-01T09:07:12.864Z,73.73
2023-04-01T09:08:33.047Z,74.62
2023-04-01T09:10:26.728Z,74.41
2023-04-01T09:11:42.789Z,73.58
2023-04-01T09:13:10.804Z,72.70
2023-04-01T09:14:40.204Z,72.66
2023-04-01T09:16:08.010Z,72.80
2023-04-01T09:17:41.203Z,72.99
2023-04-01T09:19:10.023Z,73.79
2023-04-01T09:20:25.571Z,73.07
2023-04-01T09:21:42.056Z,73.64
2023-04-01T09:22:55.993Z,74.15
2023-04-01T09:24:32.905Z,73.40
2023-04-01T09:26:08.246Z,74.04
2023-04-01T09:27:27.232Z,74.05
2023-04-01T09:28:34.440Z,73.08
2023-04-01T09:29:53.446Z,73.32
2023-04-01T09:31:19.326Z,73.47
2023-04-01T09:33:02.703Z,72.87
2023-04-01T09:34:25.714Z,73.30
2023-04-01T09:35:41.901Z,72.30
2023-04-01T09:36:46.851Z,73.32
2023-04-01T09:37:56.868Z,73.64
2023-04-01T09:39:01.396Z,71.87
2023-04-01T09:40:18.016Z,72.66
2023-04-01T09:41:32.024Z,71.14
2023-04-01T09:42:44.015Z,71.56
2023-04-01T09:44:02.546Z,70.54
2023-04-01T09:45:11.969Z,71.38
2023-04-01T09:46:24.768Z,70.54
2023-04-01T09:47:44.924Z,72.02
2023-04-01T09:49:05.829Z,71.61
2023-04-01T09:50:24.031Z,72.92
2023-04-01T09:51:34.635Z,73.42
2023-04-01T09:52:46.634Z,73.35
2023-04-01T09:54:02.219Z,74.08
2023-04-01T09:55:26.295Z,74.01
2023-04-01T09:56:59.886Z,73.50
2023-04-01T09:58:43.721Z,74.45
2023-04-01T10:00:03.175Z,73.53
2023-04-01T10:01:44.686Z,75.44
2023-04-01T10:03:26.317Z,75.80
2023-04-01T10:04:58.749Z,76.35
2023-04-01T10:06:37.642Z,76.79
2023-04-01T10:08:04.966Z,74.72
2023-04-01T10:09:43.278Z,74.37
2023-04-01T10:11:22.046Z,75.83
2023-04-01T10:12:57.178Z,74.67
2023-04-01T10:14:28.464Z,75.50
2023-04-01T10:16:05.034Z,77.21
2023-04-01T10:17:40.604Z,78.94
2023-04-01T10:19:27.259Z,77.51
2023-04-01T10:21:01.879Z,77.57
2023-04-01T10:22:25.780Z,78.42
2023-04-01T10:23:54.037Z,77.98
2023-04-01T10:25:20.539Z,77.31
2023-04-01T10:26:45.679Z,77.30
2023-04-01T10:28:16.754Z,76.10
2023-04-01T10:29:46.139Z,75.85
2023-04-01T10:31:37.296Z,76.89
2023-04-01T10:33:26.316Z,77.06
2023-04-01T10:35:13.543Z,78.09
2023-04-01T10:36:44.246Z,75.21
2023-04-01T10:38:26.763Z,76.34
2023-04-01T10:40:07.722Z,75.87
2023-04-01T10:41:30.984Z,76.90
2023-04-01T10:43:21.260Z,75.12
2023-04-01T10:44:58.873Z,76.12
2023-04-01T10:46:34.830Z,75.01
2023-04-01T10:48:10.949Z,75.63
2023-04-01T10:49:42.355Z,75.03
2023-04-01T10:51:07.348Z,74.23
2023-04-01T10:52:34.310Z,75.73
2023-04-01T10:53:44.897Z,75.18
2023-04-01T10:54:58.581Z,75.94
2023-04-01T10:56:34.299Z,77.66
2023-04-01T10:57:58.215Z,76.53
2023-04-01T10:59:22.512Z,73.56
2023-04-01T11:00:57.273Z,73.68
2023-04-01T11:02:47.733Z,73.44
2023-04-01T11:04:23.664Z,74.46
2023-04-01T11:06:08.016Z,73.21
2023-04-01T11:08:05.329Z,73.29
2023-04-01T11:09:46.787Z,73.25
2023-04-01T11:11:21.043Z,74.16
2023-04-01T11:12:50.551Z,74.30
2023-04-01T11:14:44.464Z,73.45
2023-04-01T11:16:29.184Z,74.54
2023-04-01T11:17:55.864Z,74.81
2023-04-01T11:19:41.105Z,75.56
2023-04-01T11:21:05.429Z,74.28
2023-04-01T11:22:34.868Z,77.07
2023-04-01T11:24:03.972Z,75.29
2023-04-01T11:25:42.534Z,76.35
2023-04-01T11:26:53.917Z,77.29
2023-04-01T11:28:20.313Z,79.79
2023-04-01T11:29:56.669Z,79.71
2023-04-01T11:31:26.486Z,79.37
2023-04-01T11:32:43.723Z,78.57
2023-04-01T11:33:52.992Z,77.73
2023-04-01T11:35:24.936Z,77.18
2023-04-01T11:36:41.189Z,75.75
2023-04-01T11:37:52.348Z,75.94
2023-04-01T11:39:13.401Z,77.61
2023-04-01T11:40:25.921Z,79.09
2023-04-01T11:41:39.516Z,79.42
2023-04-01T11:42:47.378Z,79.34
2023-04-01T11:44:06.410Z,78.54
2023-04-01T11:45:21.869Z,77.53
2023-04-01T11:46:31.034Z,79.34
2023-04-01T11:47:50.018Z,78.25
2023-04-01T11:49:02.704Z,78.35
2023-04-01T11:50:19.819Z,78.47
2023-04-01T11:51:38.864Z,80.25
2023-04-01T11:52:56.450Z,82.15
2023-04-01T11:54:06.382Z,79.42
2023-04-01T11:55:19.748Z,77.87
2023-04-01T11:56:44.463Z,79.03
2023-04-01T11:58:07.709Z,78.88
2023-04-01T11:59:41.557Z,78.43
2023-04-01T12:01:11.515Z,76.83
2023-04-01T12:02:22.883Z,77.88
2023-04-01T12:03:42.249Z,76.58
2023-04-01T12:05:00.161Z,77.98
2023-04-01T12:06:10.365Z,79.40
2023-04-01T12:07:22.002Z,78.26
2023-04-01T12:08:39.380Z,79.48
2023-04-01T12:09:50.597Z,81.03
2023-04-01T12:11:03.183Z,81.33
2023-04-01T12:12:15.382Z,81.37
2023-04-01T12:13:31.794Z,81.63
2023-04-01T12:14:40.271Z,81.91
2023-04-01T12:16:00.121Z,82.22
2023-04-01T12:17:11.724Z,83.39
2023-04-01T12:18:19.813Z,83.82
2023-04-01T12:19:33.738Z,81.87
2023-04-01T12:20:45.751Z,82.47
2023-04-01T12:22:01.772Z,82.81
2023-04-01T12:23:17.848Z,81.66
2023-04-01T12:24:37.315Z,82.24
2023-04-01T12:26:02.980Z,83.04
2023-04-01T12:27:20.990Z,81.46
2023-04-01T12:28:30.414Z,82.70
2023-04-01T12:30:00.130Z,81.28
2023-04-01T12:31:21.264Z,80.12
2023-04-01T12:32:31.887Z,80.38
2023-04-01T12:33:49.884Z,79.00
2023-04-01T12:35:03.354Z,79.19
2023-04-01T12:36:20.195Z,80.35
2023-04-01T12:37:28.058Z,80.95
2023-04-01T12:38:41.887Z,79.89
2023-04-01T12:40:03.963Z,77.33
2023-04-01T12:41:14.004Z,78.15
2023-04-01T12:42:31.222Z,78.10
2023-04-01T12:44:02.914Z,77.48
2023-04-01T12:45:25.721Z,79.08
2023-04-01T12:46:40.249Z,78.50
2023-04-01T12:48:09.953Z,80.20
2023-04-01T12:49:36.491Z,78.57
2023-04-01T12:50:57.263Z,76.59
2023-04-01T12:52:12.548Z,76.69
2023-04-01T12:53:40.641Z,74.52
2023-04-01T12:55:26.009Z,73.86
2023-04-01T12:56:47.038Z,76.63
2023-04-01T12:58:19.515Z,78.96
2023-04-01T12:59:38.174Z,77.76
2023-04-01T13:00:52.143Z,79.53
2023-04-01T13:02:03.410Z,78.94
2023-04-01T13:03:37.903Z,79.14
2023-04-01T13:04:53.106Z,79.35
2023-04-01T13:06:25.479Z,79.14
2023-04-01T13:07:44.626Z,76.99
2023-04-01T13:08:55.736Z,76.89
2023-04-01T13:10:09.998Z,76.51
2023-04-01T13:11:21.629Z,75.14
2023-04-01T13:12:51.074Z,77.49
2023-04-01T13:14:34.031Z,76.82
2023-04-01T13:15:44.291Z,75.96
2023-04-01T13:16:53.606Z,76.18
2023-04-01T13:18:07.540Z,76.38
2023-04-01T13:19:14.743Z,77.57
2023-04-01T13:20:27.344Z,77.61
2023-04-01T13:21:40.899Z,78.17
2023-04-01T13:22:58.973Z,78.13
2023-04-01T13:24:08.879Z,78.58
2023-04-01T13:25:22.467Z,78.92
2023-04-01T13:26:30.951Z,77.81
2023-04-01T13:28:02.388Z,77.43
2023-04-01T13:29:11.914Z,78.61
2023-04-01T13:30:26.853Z,79.20
2023-04-01T13:31:47.421Z,79.27
2023-04-01T13:32:58.949Z,78.43
2023-04-01T13:34:19.810Z,78.17
2023-04-01T13:35:43.714Z,78.15
2023-04-01T13:36:58.630Z,78.74
2023-04-01T13:38:16.979Z,78.51
2023-04-01T13:39:31.692Z,75.73
2023-04-01T13:40:55.711Z,76.61
2023-04-01T13:42:18.843Z,77.51
2023-04-01T13:43:27.406Z,79.18
2023-04-01T13:44:34.845Z,76.37
2023-04-01T13:45:51.525Z,77.76
2023-04-01T13:47:13.322Z,77.24
2023-04-01T13:48:48.930Z,80.08
2023-04-01T13:50:47.507Z,80.35
2023-04-01T13:52:06.530Z,80.91
2023-04-01T13:53:33.988Z,81.58
2023-04-01T13:54:54.216Z,82.23
2023-04-01T13:56:04.691Z,83.19
2023-04-01T13:57:25.111Z,83.70
2023-04-01T13:59:01.232Z,82.87
2023-04-01T14:00:25.802Z,81.81
2023-04-01T14:01:36.908Z,83.43
2023-04-01T14:02:55.869Z,83.17
2023-04-01T14:04:17.965Z,83.72
2023-04-01T14:05:47.420Z,84.53
2023-04-01T14:07:02.975Z,83.38
2023-04-01T14:08:14.947Z,82.61
2023-04-01T14:09:37.464Z,82.07
2023-04-01T14:10:45.071Z,81.52
2023-04-01T14:11:53.977Z,82.73
2023-04-01T14:13:03.717Z,83.10
2023-04-01T14:14:18.287Z,85.50
2023-04-01T14:15:34.965Z,86.18
2023-04-01T14:17:16.867Z,83.75
2023-04-01T14:18:34.573Z,83.06
2023-04-01T14:19:54.684Z,80.22
2023-04-01T14:21:12.023Z,80.26
2023-04-01T14:22:26.588Z,80.16
2023-04-01T14:23:47.768Z,80.97
2023-04-01T14:25:19.500Z,79.71
2023-04-01T14:26:59.199Z,82.24
2023-04-01T14:28:12.801Z,77.76
2023-04-01T14:29:25.333Z,77.71
2023-04-01T14:32:30.827Z,80.23
2023-04-01T14:33:43.579Z,79.24
2023-04-01T14:34:59.278Z,79.07
2023-04-01T14:36:29.521Z,78.70
2023-04-01T14:37:59.242Z,78.55
2023-04-01T14:39:18.415Z,80.93
2023-04-01T14:40:29.675Z,81.30
2023-04-01T14:41:43.847Z,81.38
2023-04-01T14:43:16.772Z,79.02
2023-04-01T14:44:31.951Z,76.97
2023-04-01T14:45:49.965Z,77.31
2023-04-01T14:47:12.645Z,79.87
2023-04-01T14:48:30.779Z,81.11
2023-04-01T14:49:37.328Z,81.64
2023-04-01T14:50:46.277Z,81.61
2023-04-01T14:51:49.446Z,81.80
2023-04-01T14:52:59.779Z,81.48
2023-04-01T14:54:08.110Z,82.15
2023-04-01T14:55:28.482Z,81.38
2023-04-01T14:56:38.895Z,82.76
2023-04-01T14:57:41.396Z,83.02
2023-04-01T14:58:46.489Z,82.92
2023-04-01T14:59:51.439Z,81.55
2023-04-01T15:01:08.437Z,80.57
2023-04-01T15:02:30.791Z,80.27
2023-04-01T15:03:39.252Z,80.65
2023-04-01T15:04:54.652Z,80.64
2023-04-01T15:06:09.811Z,80.13
2023-04-01T15:07:30.011Z,80.38
2023-04-01T15:08:46.046Z,80.11
2023-04-01T15:09:57.743Z,80.33
2023-04-01T15:11:19.696Z,82.57
2023-04-01T15:12:30.592Z,82.06
2023-04-01T15:13:52.537Z,83.63
2023-04-01T15:15:18.372Z,84.03
2023-04-01T15:16:27.851Z,84.56
2023-04-01T15:17:49.526Z,88.75
2023-04-01T15:19:03.699Z,90.12
2023-04-01T15:20:33.764Z,91.62
2023-04-01T15:22:04.196Z,93.89
2023-04-01T15:23:20.785Z,94.36
2023-04-01T15:24:26.605Z,93.93
2023-04-01T15:26:01.145Z,95.26
2023-04-01T15:27:23.972Z,95.83
2023-04-01T15:28:33.635Z,94.94
2023-04-01T15:29:54.529Z,95.05
2023-04-01T15:31:05.113Z,95.18
2023-04-01T15:32:18.314Z,92.78